createdAt,value
2018-10-06T00:14:04.182Z,13.70
2018-10-06T00:36:45.286Z,13.50
2018-10-06T00:39:20.729Z,13.40
2018-10-06T00:41:55.555Z,13.40
2018-10-06T00:44:31.405Z,13.40
2018-10-06T01:04:25.393Z,13.60
2018-10-06T01:07:02.473Z,13.50
2018-10-06T01:26:54.925Z,13.30
2018-10-06T01:29:28.010Z,13.20
2018-10-06T01:49:19.531Z,13.10
2018-10-06T01:51:56.412Z,13.20
2018-10-06T02:14:31.779Z,13.40
2018-10-06T02:17:07.425Z,13.40
2018-10-06T02:36:59.941Z,13.30
2018-10-06T02:39:36.455Z,13.20
2018-10-06T02:59:31.245Z,13.20
2018-10-06T03:02:05.254Z,13.10
2018-10-06T03:04:39.467Z,13.20
2018-10-06T03:07:13.275Z,13.20
2018-10-06T03:27:04.185Z,13.00
2018-10-06T03:29:40.241Z,13.00
2018-10-06T03:32:15.480Z,13.00
2018-10-06T03:34:51.540Z,13.00
2018-10-06T03:37:26.569Z,12.90
2018-10-06T03:57:19.736Z,13.10
2018-10-06T03:59:54.971Z,13.10
2018-10-06T04:19:48.139Z,13.10
2018-10-06T04:22:23.579Z,13.10
2018-10-06T04:24:58.408Z,13.10
2018-10-06T04:27:34.873Z,13.10
2018-10-06T04:47:27.423Z,13.20
2018-10-06T04:50:02.461Z,13.30
2018-10-06T04:52:36.465Z,13.30
2018-10-06T04:55:11.995Z,13.30
2018-10-06T04:57:45.719Z,13.30
2018-10-06T05:17:37.657Z,13.30
2018-10-06T05:20:14.324Z,13.40
2018-10-06T05:40:05.644Z,13.30
2018-10-06T05:42:42.070Z,13.30
2018-10-06T06:02:34.660Z,13.30
2018-10-06T06:05:17.690Z,13.30
2018-10-06T06:25:11.707Z,13.70
2018-10-06T06:27:47.088Z,13.70
2018-10-06T06:47:38.635Z,13.80
2018-10-06T07:07:30.118Z,14.00
2018-10-06T07:30:11.262Z,14.40
2018-10-06T07:32:46.497Z,14.50
2018-10-06T07:35:21.738Z,14.60
2018-10-06T07:37:58.817Z,14.60
2018-10-06T07:57:51.983Z,14.90
2018-10-06T08:00:29.680Z,15.00
2018-10-06T08:20:20.808Z,15.30
2018-10-06T08:23:03.001Z,15.30
2018-10-06T08:42:56.777Z,15.80
2018-10-06T08:45:35.089Z,15.90
2018-10-06T09:08:25.612Z,16.60
2018-10-06T09:11:04.809Z,16.40
2018-10-06T09:13:48.778Z,16.60
2018-10-06T09:16:26.066Z,16.70
2018-10-06T09:19:02.538Z,16.60
2018-10-06T09:21:39.205Z,16.60
2018-10-06T09:24:17.519Z,16.70
2018-10-06T09:26:52.754Z,16.70
2018-10-06T09:29:30.663Z,16.80
2018-10-06T09:32:07.179Z,16.80
2018-10-06T09:34:42.566Z,16.90
2018-10-06T09:37:19.438Z,16.90
2018-10-06T09:39:54.682Z,17.00
2018-10-06T09:42:31.851Z,17.20
2018-10-06T09:45:09.662Z,17.20
2018-10-06T09:47:44.495Z,17.30
2018-10-06T09:50:19.729Z,17.40
2018-10-06T09:53:00.701Z,17.30
2018-10-06T09:55:36.969Z,17.40
2018-10-06T09:58:16.300Z,17.50
2018-10-06T10:00:57.710Z,17.50
2018-10-06T10:03:39.680Z,17.50
2018-10-06T10:06:17.194Z,17.50
2018-10-06T10:08:52.610Z,17.60
2018-10-06T10:11:32.768Z,17.70
2018-10-06T10:14:08.008Z,17.80
2018-10-06T10:16:45.209Z,18.00
2018-10-06T10:19:19.304Z,18.20
2018-10-06T10:21:56.198Z,18.20
2018-10-06T10:24:31.824Z,18.40
2018-10-06T10:27:10.547Z,18.20
2018-10-06T10:29:45.784Z,18.20
2018-10-06T10:32:21.841Z,18.40
2018-10-06T10:35:00.258Z,18.30
2018-10-06T10:54:53.110Z,18.00
2018-10-06T10:57:30.828Z,18.20
2018-10-06T11:00:06.797Z,18.30
2018-10-06T11:02:42.925Z,18.50
2018-10-06T11:22:34.653Z,19.20
2018-10-06T11:42:26.797Z,19.30
2018-10-06T11:45:09.810Z,19.20
2018-10-06T12:05:08.099Z,19.00
2018-10-06T12:07:43.131Z,19.00
2018-10-06T12:18:56.925Z,19.10
2018-10-06T12:38:51.927Z,19.30
2018-10-06T12:41:31.886Z,19.40
2018-10-06T12:44:16.741Z,19.40
2018-10-06T12:46:54.645Z,19.50
2018-10-06T12:49:36.645Z,19.50
2018-10-06T12:52:10.855Z,19.50
2018-10-06T12:54:50.804Z,19.50
2018-10-06T13:14:48.065Z,19.70
2018-10-06T13:17:24.231Z,19.80
2018-10-06T13:37:15.650Z,19.60
2018-10-06T13:39:51.503Z,19.60
2018-10-06T13:59:43.643Z,20.10
2018-10-06T14:02:19.899Z,20.10
2018-10-06T14:04:53.911Z,20.10
2018-10-06T14:07:31.811Z,20.10
2018-10-06T14:10:07.874Z,20.10
2018-10-06T14:30:02.880Z,20.40
2018-10-06T14:32:37.961Z,20.40
2018-10-06T14:52:30.873Z,20.40
2018-10-06T14:55:07.955Z,20.40
2018-10-06T15:15:04.599Z,20.00
2018-10-06T15:17:40.407Z,20.00
2018-10-06T15:20:12.821Z,20.00
2018-10-06T15:22:46.828Z,20.00
2018-10-06T15:25:22.887Z,20.00
2018-10-06T15:45:19.432Z,19.50
2018-10-06T15:47:57.233Z,19.40
2018-10-06T16:07:51.011Z,19.40
2018-10-06T16:10:25.017Z,19.30
2018-10-06T16:30:16.131Z,18.90
2018-10-06T16:32:52.398Z,18.90
2018-10-06T16:35:30.096Z,18.80
2018-10-06T16:55:27.149Z,18.20
2018-10-06T16:58:05.255Z,18.10
2018-10-06T17:17:57.189Z,17.80
2018-10-06T17:20:32.237Z,17.90
2018-10-06T17:40:25.386Z,17.70
2018-10-06T17:43:00.421Z,17.60
2018-10-06T18:02:53.179Z,17.50
2018-10-06T18:05:28.211Z,17.50
2018-10-06T18:08:02.423Z,17.50
2018-10-06T18:27:53.334Z,17.30
2018-10-06T18:30:29.191Z,17.40
2018-10-06T18:50:21.127Z,17.30
2018-10-06T18:52:58.413Z,17.20
2018-10-06T19:13:01.197Z,17.10
2018-10-06T19:15:37.277Z,17.20
2018-10-06T19:38:18.354Z,16.90
2018-10-06T19:40:53.189Z,16.90
2018-10-06T19:43:34.502Z,16.90
2018-10-06T19:46:10.213Z,16.90
2018-10-06T19:48:44.226Z,16.80
2018-10-06T19:51:18.236Z,16.80
2018-10-06T19:53:53.268Z,16.80
2018-10-06T19:56:28.304Z,16.80
2018-10-06T19:59:04.157Z,16.80
2018-10-06T20:01:39.189Z,16.80
2018-10-06T20:04:20.403Z,16.80
2018-10-06T20:06:56.217Z,16.80
2018-10-06T20:09:31.256Z,16.80
2018-10-06T20:12:07.696Z,16.70
2018-10-06T20:14:45.792Z,16.80
2018-10-06T20:17:21.268Z,16.80
2018-10-06T20:19:56.504Z,16.80
2018-10-06T20:22:31.130Z,16.80
2018-10-06T20:25:06.368Z,16.70
2018-10-06T20:27:41.197Z,16.80
2018-10-06T20:30:16.230Z,16.70
2018-10-06T20:32:51.480Z,16.60
2018-10-06T20:35:26.912Z,16.60
2018-10-06T20:38:01.731Z,16.70
2018-10-06T20:40:36.722Z,16.60
2018-10-06T20:43:14.265Z,16.60
2018-10-06T20:45:49.503Z,16.60
2018-10-06T20:48:25.716Z,16.60
2018-10-06T20:51:00.187Z,16.60
2018-10-06T20:53:34.811Z,16.70
2018-10-06T20:56:09.641Z,16.60
2018-10-06T20:58:43.855Z,16.60
2018-10-06T21:01:20.320Z,16.60
2018-10-06T21:03:58.218Z,16.60
2018-10-06T21:06:34.278Z,16.60
2018-10-06T21:09:12.175Z,16.60
2018-10-06T21:11:48.447Z,16.50
2018-10-06T21:14:24.297Z,16.50
2018-10-06T21:16:59.327Z,16.50
2018-10-06T21:19:34.156Z,16.50
2018-10-06T21:22:10.212Z,16.50
2018-10-06T21:24:47.301Z,16.30
2018-10-06T21:27:24.171Z,16.30
2018-10-06T21:30:00.227Z,16.20
2018-10-06T21:32:35.262Z,16.20
2018-10-06T21:35:10.913Z,16.20
2018-10-06T21:37:49.224Z,16.20
2018-10-06T21:40:24.253Z,16.20
2018-10-06T21:42:59.289Z,16.20
2018-10-06T21:45:34.320Z,16.20
2018-10-06T21:48:10.175Z,16.20
2018-10-06T21:50:45.785Z,16.20
2018-10-06T21:53:20.240Z,16.20
2018-10-06T21:55:55.476Z,16.20
2018-10-06T21:58:30.308Z,16.20
2018-10-06T22:01:13.332Z,16.20
2018-10-06T22:03:48.159Z,16.20
2018-10-06T22:06:22.374Z,16.30
2018-10-06T22:08:59.268Z,16.30
2018-10-06T22:11:33.261Z,16.30
2018-10-06T22:14:07.679Z,16.30
2018-10-06T22:16:42.508Z,16.30
2018-10-06T22:19:18.562Z,16.20
2018-10-06T22:21:54.006Z,16.20
2018-10-06T22:24:29.241Z,16.20
2018-10-06T22:27:04.350Z,16.20
2018-10-06T22:29:39.312Z,16.20
2018-10-06T22:32:15.741Z,16.10
2018-10-06T22:34:49.171Z,16.20
2018-10-06T22:37:29.326Z,16.20
2018-10-06T22:40:04.744Z,16.20
2018-10-06T22:42:41.235Z,16.20
2018-10-06T22:45:17.298Z,16.20
2018-10-06T22:47:52.329Z,16.20
2018-10-06T22:50:29.207Z,16.20
2018-10-06T22:53:04.241Z,16.20
2018-10-06T22:55:40.292Z,16.30
2018-10-06T22:58:15.125Z,16.30
2018-10-06T23:00:50.571Z,16.20
2018-10-06T23:03:26.215Z,16.10
2018-10-06T23:06:01.254Z,16.10
2018-10-06T23:08:36.281Z,16.10
2018-10-06T23:11:10.291Z,16.00
2018-10-06T23:13:45.325Z,16.00
2018-10-06T23:16:20.563Z,16.00
2018-10-06T23:19:00.308Z,16.00
2018-10-06T23:21:36.570Z,15.90
2018-10-06T23:24:12.216Z,15.90
2018-10-06T23:26:47.254Z,15.90
2018-10-06T23:29:23.512Z,15.90
2018-10-06T23:31:59.365Z,15.80
2018-10-06T23:34:36.446Z,15.80
2018-10-06T23:37:11.276Z,15.70
2018-10-06T23:39:46.925Z,15.70
2018-10-06T23:42:21.343Z,15.60
2018-10-06T23:44:55.558Z,15.50
2018-10-06T23:47:32.227Z,15.50
2018-10-06T23:50:09.315Z,15.50
2018-10-06T23:52:44.345Z,15.60
2018-10-06T23:55:19.378Z,15.50
2018-10-06T23:57:56.255Z,15.40
